createdAt,value
2022-11-13T00:00:12.541Z,10.77
2022-11-13T00:02:57.714Z,10.63
2022-11-13T00:05:43.682Z,11.38
2022-11-13T00:08:30.302Z,11.50
2022-11-13T00:11:18.392Z,12.23
2022-11-13T00:14:04.639Z,11.50
2022-11-13T00:16:49.474Z,11.15
2022-11-13T00:19:34.604Z,10.82
2022-11-13T00:22:19.866Z,10.98
2022-11-13T00:25:05.445Z,11.20
2022-11-13T00:27:50.679Z,11.40
2022-11-13T00:30:36.169Z,11.13
2022-11-13T00:33:37.907Z,11.05
2022-11-13T00:36:28.105Z,11.57
2022-11-13T00:39:13.363Z,10.73
2022-11-13T00:41:58.112Z,10.88
2022-11-13T00:44:43.130Z,10.57
2022-11-13T00:47:28.149Z,12.43
2022-11-13T00:50:13.118Z,11.85
2022-11-13T00:52:58.120Z,12.82
2022-11-13T00:55:44.489Z,12.63
2022-11-13T00:58:30.205Z,13.20
2022-11-13T01:01:18.664Z,13.10
2022-11-13T01:04:03.615Z,13.20
2022-11-13T01:06:49.430Z,12.65
2022-11-13T01:09:34.272Z,12.70
2022-11-13T01:12:19.425Z,12.55
2022-11-13T01:15:05.026Z,13.02
2022-11-13T01:17:51.622Z,12.65
2022-11-13T01:20:36.923Z,12.73
2022-11-13T01:23:21.964Z,13.38
2022-11-13T01:26:14.874Z,11.95
2022-11-13T01:29:00.398Z,13.65
2022-11-13T01:31:45.813Z,12.75
2022-11-13T01:34:31.978Z,12.85
2022-11-13T01:37:17.256Z,12.55
2022-11-13T01:40:02.945Z,13.07
2022-11-13T01:42:47.897Z,12.73
2022-11-13T01:45:51.757Z,12.65
2022-11-13T01:48:40.315Z,12.70
2022-11-13T01:51:39.870Z,13.18
2022-11-13T01:54:54.805Z,13.48
2022-11-13T01:57:41.136Z,13.55
2022-11-13T02:00:26.311Z,12.00
2022-11-13T02:03:11.497Z,13.23
2022-11-13T02:05:56.760Z,11.52
2022-11-13T02:08:43.295Z,13.40
2022-11-13T02:14:28.787Z,12.95
2022-11-13T02:17:22.690Z,12.95
2022-11-13T02:20:08.436Z,13.48
2022-11-13T02:23:19.169Z,13.38
2022-11-13T02:26:05.333Z,13.60
2022-11-13T02:28:50.491Z,13.13
2022-11-13T02:31:35.750Z,14.13
2022-11-13T02:34:20.747Z,13.82
2022-11-13T02:37:05.793Z,13.82
2022-11-13T02:39:51.075Z,13.73
2022-11-13T02:42:36.026Z,13.80
2022-11-13T02:45:21.819Z,14.00
2022-11-13T02:48:07.603Z,14.45
2022-11-13T02:50:52.565Z,13.85
2022-11-13T02:53:37.393Z,14.00
2022-11-13T02:56:22.410Z,14.30
2022-11-13T02:59:07.336Z,13.80
2022-11-13T03:01:52.386Z,14.70
2022-11-13T03:05:05.349Z,13.98
2022-11-13T03:07:42.853Z,14.38
2022-11-13T03:10:27.967Z,14.48
2022-11-13T03:13:12.903Z,14.52
2022-11-13T03:16:06.274Z,14.85
2022-11-13T03:18:51.178Z,14.82
2022-11-13T03:21:36.109Z,15.90
2022-11-13T03:24:21.268Z,15.02
2022-11-13T03:27:06.454Z,13.70
2022-11-13T03:29:51.535Z,14.27
2022-11-13T03:32:36.532Z,14.57
2022-11-13T03:35:22.604Z,15.68
2022-11-13T03:38:07.874Z,14.68
2022-11-13T03:40:53.049Z,15.15
2022-11-13T03:43:38.324Z,14.73
2022-11-13T03:46:23.191Z,15.15
2022-11-13T03:49:08.138Z,16.00
2022-11-13T03:51:53.008Z,14.98
2022-11-13T03:54:37.885Z,16.08
2022-11-13T03:57:22.859Z,15.82
2022-11-13T04:00:08.256Z,14.82
2022-11-13T04:02:53.138Z,16.02
2022-11-13T04:05:38.769Z,15.85
2022-11-13T04:08:24.164Z,15.80
2022-11-13T04:11:10.922Z,16.33
2022-11-13T04:13:55.722Z,15.65
2022-11-13T04:16:40.760Z,15.73
2022-11-13T04:19:25.431Z,16.38
2022-11-13T04:22:10.534Z,16.58
2022-11-13T04:24:55.709Z,16.08
2022-11-13T04:27:40.758Z,16.58
2022-11-13T04:30:25.761Z,15.93
2022-11-13T04:33:10.603Z,16.30
2022-11-13T04:35:55.678Z,16.88
2022-11-13T04:38:40.446Z,15.70
2022-11-13T04:41:44.159Z,16.05
2022-11-13T04:44:29.326Z,16.05
2022-11-13T04:47:14.180Z,16.35
2022-11-13T04:49:59.173Z,15.95
2022-11-13T04:52:44.124Z,16.85
2022-11-13T04:55:29.033Z,15.38
2022-11-13T04:58:14.072Z,15.65
2022-11-13T05:00:58.979Z,16.08
2022-11-13T05:03:43.796Z,16.48
2022-11-13T05:06:29.258Z,15.55
2022-11-13T05:09:14.452Z,16.05
2022-11-13T05:11:59.265Z,16.63
2022-11-13T05:14:44.290Z,15.25
2022-11-13T05:17:29.167Z,16.20
2022-11-13T05:20:14.741Z,15.07
2022-11-13T05:22:59.838Z,14.65
2022-11-13T05:25:44.887Z,15.93
2022-11-13T05:28:30.237Z,16.13
2022-11-13T05:31:16.557Z,16.88
2022-11-13T05:34:05.926Z,14.75
2022-11-13T05:36:51.814Z,15.55
2022-11-13T05:39:36.588Z,17.05
2022-11-13T05:42:21.653Z,16.23
2022-11-13T05:45:07.231Z,16.33
2022-11-13T05:47:52.403Z,16.33
2022-11-13T05:50:37.267Z,16.30
2022-11-13T05:53:22.266Z,15.40
2022-11-13T05:56:11.804Z,16.10
2022-11-13T05:58:58.629Z,18.38
2022-11-13T06:01:43.517Z,18.15
2022-11-13T06:04:28.531Z,16.58
2022-11-13T06:07:13.410Z,16.88
2022-11-13T06:09:58.316Z,17.27
2022-11-13T06:12:43.106Z,16.88
2022-11-13T06:15:27.987Z,17.45
2022-11-13T06:18:12.869Z,18.02
2022-11-13T06:21:02.624Z,16.83
2022-11-13T06:23:48.328Z,15.93
2022-11-13T06:26:35.353Z,17.25
2022-11-13T06:29:20.442Z,18.20
2022-11-13T06:32:05.514Z,18.55
2022-11-13T06:34:50.308Z,17.40
2022-11-13T06:37:35.403Z,17.45
2022-11-13T06:40:20.128Z,17.10
2022-11-13T06:43:05.090Z,16.63
2022-11-13T06:45:49.988Z,17.25
2022-11-13T06:48:34.932Z,16.88
2022-11-13T06:51:27.477Z,17.90
2022-11-13T06:54:12.475Z,17.50
2022-11-13T06:56:57.463Z,18.05
2022-11-13T06:59:43.525Z,16.77
2022-11-13T07:02:28.679Z,17.50
2022-11-13T07:05:13.594Z,17.80
2022-11-13T07:07:58.418Z,16.80
2022-11-13T07:10:43.539Z,17.42
2022-11-13T07:13:29.060Z,16.92
2022-11-13T07:16:17.916Z,17.75
2022-11-13T07:19:03.847Z,16.52
2022-11-13T07:21:49.183Z,17.45
2022-11-13T07:24:34.145Z,16.88
2022-11-13T07:27:19.140Z,16.35
2022-11-13T07:30:04.451Z,17.63
2022-11-13T07:32:50.390Z,17.75
2022-11-13T07:35:35.204Z,17.90
2022-11-13T07:38:20.020Z,16.92
2022-11-13T07:41:05.565Z,17.45
2022-11-13T07:43:50.794Z,17.10
2022-11-13T07:46:35.899Z,17.52
2022-11-13T07:49:20.691Z,17.50
2022-11-13T07:52:05.727Z,17.10
2022-11-13T07:54:50.551Z,17.20
2022-11-13T07:57:35.509Z,18.58
2022-11-13T08:00:20.458Z,17.52
2022-11-13T08:03:16.562Z,17.45
2022-11-13T08:06:04.928Z,18.50
2022-11-13T08:08:49.939Z,17.17
2022-11-13T08:11:35.939Z,17.25
2022-11-13T08:14:21.192Z,17.92
2022-11-13T08:17:06.270Z,17.55
2022-11-13T08:19:51.363Z,17.50
2022-11-13T08:22:36.233Z,17.75
2022-11-13T08:25:21.186Z,17.98
2022-11-13T08:28:10.151Z,17.58
2022-11-13T08:30:57.977Z,17.73
2022-11-13T08:33:43.497Z,17.98
2022-11-13T08:36:28.626Z,17.55
2022-11-13T08:39:14.207Z,19.20
2022-11-13T08:41:59.103Z,18.48
2022-11-13T08:44:43.938Z,18.55
2022-11-13T08:47:29.726Z,17.83
2022-11-13T08:50:14.692Z,19.55
2022-11-13T08:53:00.859Z,18.17
2022-11-13T08:55:46.274Z,19.00
2022-11-13T08:58:33.388Z,18.73
2022-11-13T09:01:18.562Z,19.08
2022-11-13T09:04:03.635Z,18.23
2022-11-13T09:06:48.677Z,19.08
2022-11-13T09:09:34.428Z,18.83
2022-11-13T09:12:19.470Z,20.25
2022-11-13T09:15:05.422Z,19.35
2022-11-13T09:17:50.831Z,19.08
2022-11-13T09:20:35.724Z,18.58
2022-11-13T09:23:20.986Z,17.73
2022-11-13T09:26:05.925Z,17.30
2022-11-13T09:28:51.019Z,19.55
2022-11-13T09:31:38.229Z,18.58
2022-11-13T09:34:25.770Z,19.27
2022-11-13T09:37:10.837Z,18.63
2022-11-13T09:39:55.747Z,19.73
2022-11-13T09:42:41.445Z,18.10
2022-11-13T09:45:26.872Z,19.05
2022-11-13T09:48:28.357Z,18.58
2022-11-13T09:51:18.609Z,18.00
2022-11-13T09:54:11.651Z,18.02
2022-11-13T09:57:01.665Z,18.73
2022-11-13T09:59:59.656Z,17.88
2022-11-13T10:03:46.613Z,17.98
2022-11-13T10:07:00.344Z,18.02
2022-11-13T10:10:00.323Z,18.20
2022-11-13T10:12:49.514Z,19.40
2022-11-13T10:15:37.242Z,18.50
2022-11-13T10:18:28.012Z,18.98
2022-11-13T10:21:23.925Z,18.80
2022-11-13T10:24:18.755Z,17.30
2022-11-13T10:27:09.060Z,19.80
2022-11-13T10:29:54.402Z,19.02
2022-11-13T10:32:39.437Z,17.67
2022-11-13T10:35:45.570Z,18.52
2022-11-13T10:38:44.348Z,17.75
2022-11-13T10:41:29.580Z,19.33
2022-11-13T10:44:22.412Z,19.40
2022-11-13T10:47:36.163Z,19.48
2022-11-13T10:50:30.634Z,17.30
2022-11-13T10:53:18.211Z,18.27
2022-11-13T10:56:12.934Z,17.90
2022-11-13T10:59:10.298Z,16.48
2022-11-13T11:01:55.679Z,17.45
2022-11-13T11:04:40.651Z,17.15
2022-11-13T11:07:25.578Z,20.30
2022-11-13T11:10:23.183Z,18.27
2022-11-13T11:13:22.278Z,19.85
2022-11-13T11:16:09.388Z,18.35
2022-11-13T11:19:00.289Z,19.45
2022-11-13T11:21:49.324Z,17.67
2022-11-13T11:24:41.606Z,18.02
2022-11-13T11:27:43.208Z,19.65
2022-11-13T11:30:35.818Z,18.13
2022-11-13T11:33:31.340Z,19.50
2022-11-13T11:36:32.009Z,18.98
2022-11-13T11:39:28.983Z,19.00
2022-11-13T11:42:34.409Z,19.35
2022-11-13T11:45:44.355Z,19.13
2022-11-13T11:48:33.995Z,17.83
2022-11-13T11:51:31.151Z,17.75
2022-11-13T11:54:37.101Z,17.45
2022-11-13T11:58:00.171Z,18.73
2022-11-13T12:00:50.868Z,16.83
2022-11-13T12:04:04.523Z,16.73
2022-11-13T12:07:02.577Z,19.20
2022-11-13T12:10:03.294Z,17.35
2022-11-13T12:12:58.297Z,16.60
2022-11-13T12:16:05.666Z,14.40
2022-11-13T12:19:04.731Z,15.00
2022-11-13T12:22:30.978Z,14.23
2022-11-13T12:25:30.679Z,14.80
2022-11-13T12:28:35.997Z,13.65
2022-11-13T12:31:53.764Z,13.63
2022-11-13T12:34:51.084Z,13.48
2022-11-13T12:37:57.611Z,13.48
2022-11-13T12:40:56.171Z,11.73
2022-11-13T12:43:59.012Z,12.25
2022-11-13T12:46:44.755Z,12.90
2022-11-13T12:49:33.406Z,12.20
2022-11-13T12:52:22.649Z,12.20
2022-11-13T12:55:27.777Z,13.82
2022-11-13T12:58:23.559Z,13.65
2022-11-13T13:01:11.861Z,12.48
2022-11-13T13:04:06.942Z,11.80
2022-11-13T13:07:06.960Z,12.52
2022-11-13T13:09:54.877Z,11.55
2022-11-13T13:13:00.403Z,12.25
2022-11-13T13:16:21.921Z,12.07
2022-11-13T13:19:25.202Z,12.13
2022-11-13T13:22:12.355Z,12.65
2022-11-13T13:25:05.293Z,12.73
2022-11-13T13:28:01.130Z,12.45
2022-11-13T13:31:01.338Z,12.90
2022-11-13T13:34:00.229Z,12.93
2022-11-13T13:36:57.698Z,12.32
2022-11-13T13:39:51.600Z,12.57
2022-11-13T13:42:55.838Z,12.13
2022-11-13T13:46:04.549Z,13.07
2022-11-13T13:48:53.127Z,12.82
2022-11-13T13:51:48.388Z,12.50
2022-11-13T13:54:34.926Z,13.48
2022-11-13T13:57:20.757Z,14.75
2022-11-13T14:00:12.051Z,13.85
2022-11-13T14:02:58.049Z,14.48
2022-11-13T14:05:42.939Z,14.77
2022-11-13T14:08:28.268Z,15.30
2022-11-13T14:11:27.029Z,15.18
2022-11-13T14:14:31.055Z,17.17
2022-11-13T14:17:24.726Z,16.63
2022-11-13T14:20:12.227Z,17.05
2022-11-13T14:22:57.513Z,18.02
2022-11-13T14:25:45.052Z,19.15
2022-11-13T14:28:33.753Z,18.27
2022-11-13T14:31:19.311Z,18.75
2022-11-13T14:34:19.413Z,19.58
2022-11-13T14:37:28.845Z,20.38
2022-11-13T14:40:21.973Z,19.10
2022-11-13T14:43:08.813Z,22.58
2022-11-13T14:45:58.106Z,20.23
2022-11-13T14:48:53.957Z,21.67
2022-11-13T14:51:39.390Z,21.52
2022-11-13T14:54:53.151Z,22.48
2022-11-13T14:57:47.269Z,21.40
2022-11-13T15:00:35.566Z,23.42
2022-11-13T15:03:20.735Z,22.25
2022-11-13T15:06:14.828Z,22.65
2022-11-13T15:09:00.646Z,22.15
2022-11-13T15:11:46.079Z,19.73
2022-11-13T15:14:31.339Z,21.95
2022-11-13T15:17:19.611Z,22.52
2022-11-13T15:20:09.459Z,20.92
2022-11-13T15:22:55.790Z,21.20
2022-11-13T15:25:41.853Z,20.73
2022-11-13T15:28:26.689Z,20.55
2022-11-13T15:31:20.642Z,14.40
2022-11-13T15:34:05.632Z,12.35
2022-11-13T15:36:50.777Z,13.35
2022-11-13T15:39:35.642Z,10.23
2022-11-13T15:42:29.832Z,10.32
2022-11-13T15:45:16.428Z,10.02
2022-11-13T15:48:01.443Z,8.93
2022-11-13T15:50:46.770Z,9.75
2022-11-13T15:53:31.882Z,9.18
2022-11-13T15:56:18.154Z,8.55
2022-11-13T15:59:03.001Z,8.40
2022-11-13T16:01:48.152Z,8.50
2022-11-13T16:04:54.617Z,8.00
2022-11-13T16:07:41.276Z,7.05
2022-11-13T16:10:27.444Z,7.90
2022-11-13T16:13:12.443Z,6.38
2022-11-13T16:15:59.651Z,7.47
2022-11-13T16:18:45.000Z,7.45
2022-11-13T16:21:30.554Z,7.82
2022-11-13T16:24:17.966Z,6.97
2022-11-13T16:27:05.989Z,7.05
2022-11-13T16:29:50.973Z,7.13
2022-11-13T16:32:35.921Z,6.88
2022-11-13T16:35:21.199Z,7.35
2022-11-13T16:38:12.636Z,6.30
2022-11-13T16:40:57.434Z,7.05
2022-11-13T16:43:45.723Z,7.35
2022-11-13T16:46:36.974Z,6.63
2022-11-13T16:49:22.102Z,7.00
2022-11-13T16:52:07.025Z,6.70
2022-11-13T16:54:51.767Z,6.25
2022-11-13T16:57:36.736Z,6.85
2022-11-13T17:00:22.238Z,6.35
2022-11-13T17:03:07.123Z,6.40
2022-11-13T17:05:52.501Z,7.25
2022-11-13T17:08:37.267Z,6.20
2022-11-13T17:11:23.292Z,6.80
2022-11-13T17:14:10.452Z,6.18
2022-11-13T17:16:55.329Z,6.82
2022-11-13T17:19:43.877Z,6.90
2022-11-13T17:22:29.043Z,6.03
2022-11-13T17:25:18.495Z,6.68
2022-11-13T17:28:03.340Z,6.43
2022-11-13T17:30:48.018Z,6.15
2022-11-13T17:33:33.276Z,6.38
2022-11-13T17:36:18.481Z,5.90
2022-11-13T17:39:04.064Z,6.30
2022-11-13T17:41:50.531Z,5.65
2022-11-13T17:44:35.656Z,5.70
2022-11-13T17:47:20.647Z,5.55
2022-11-13T17:50:07.611Z,5.30
2022-11-13T17:52:52.742Z,5.88
2022-11-13T17:55:37.590Z,5.95
2022-11-13T17:58:23.523Z,5.63
2022-11-13T18:01:12.038Z,5.32
2022-11-13T18:03:57.538Z,5.63
2022-11-13T18:06:42.462Z,6.15
2022-11-13T18:09:27.394Z,5.90
2022-11-13T18:12:12.272Z,5.53
2022-11-13T18:14:57.160Z,5.85
2022-11-13T18:17:42.638Z,5.85
2022-11-13T18:20:27.904Z,5.60
2022-11-13T18:23:12.988Z,6.38
2022-11-13T18:25:58.025Z,5.80
2022-11-13T18:28:43.715Z,5.95
2022-11-13T18:31:29.529Z,6.07
2022-11-13T18:34:16.829Z,6.00
2022-11-13T18:37:01.870Z,6.47
2022-11-13T18:39:47.166Z,6.32
2022-11-13T18:42:32.250Z,5.80
2022-11-13T18:45:17.177Z,6.22
2022-11-13T18:48:01.991Z,6.10
2022-11-13T18:50:59.433Z,6.47
2022-11-13T18:53:48.132Z,5.93
2022-11-13T18:56:33.752Z,6.93
2022-11-13T18:59:18.872Z,6.63
2022-11-13T19:02:04.145Z,7.07
2022-11-13T19:04:49.418Z,6.75
2022-11-13T19:07:34.327Z,7.35
2022-11-13T19:10:19.771Z,6.50
2022-11-13T19:13:04.615Z,7.22
2022-11-13T19:15:50.838Z,6.70
2022-11-13T19:18:37.622Z,7.47
2022-11-13T19:21:25.051Z,8.57
2022-11-13T19:24:11.659Z,8.48
2022-11-13T19:26:57.045Z,8.48
2022-11-13T19:29:42.033Z,8.32
2022-11-13T19:32:27.139Z,8.27
2022-11-13T19:35:12.253Z,8.60
2022-11-13T19:37:58.030Z,8.20
2022-11-13T19:40:46.082Z,8.18
2022-11-13T19:43:32.581Z,8.85
2022-11-13T19:46:19.091Z,9.43
2022-11-13T19:49:04.063Z,10.05
2022-11-13T19:51:49.428Z,9.75
2022-11-13T19:54:34.364Z,10.05
2022-11-13T19:57:19.875Z,9.77
2022-11-13T20:00:05.358Z,10.82
2022-11-13T20:02:50.553Z,11.55
2022-11-13T20:05:43.438Z,11.20
2022-11-13T20:08:28.815Z,12.90
2022-11-13T20:11:15.104Z,15.88
2022-11-13T20:14:00.801Z,15.68
2022-11-13T20:16:46.029Z,16.20
2022-11-13T20:19:30.875Z,15.00
2022-11-13T20:22:15.753Z,16.15
2022-11-13T20:25:00.534Z,15.60
2022-11-13T20:27:47.446Z,15.60
2022-11-13T20:30:33.167Z,14.65
2022-11-13T20:33:22.372Z,18.13
2022-11-13T20:36:08.316Z,16.05
2022-11-13T20:38:55.626Z,16.17
2022-11-13T20:41:40.775Z,17.75
2022-11-13T20:44:25.596Z,16.85
2022-11-13T20:47:11.209Z,18.85
2022-11-13T20:49:56.382Z,18.77
2022-11-13T20:52:41.499Z,18.45
2022-11-13T20:55:26.572Z,18.67
2022-11-13T20:58:11.413Z,19.58
2022-11-13T21:01:06.866Z,20.05
2022-11-13T21:03:52.170Z,18.88
2022-11-13T21:06:37.362Z,19.48
2022-11-13T21:09:22.333Z,19.50
2022-11-13T21:12:07.482Z,20.60
2022-11-13T21:14:52.698Z,20.63
2022-11-13T21:17:37.537Z,20.67
2022-11-13T21:20:22.433Z,19.98
2022-11-13T21:23:07.189Z,20.33
2022-11-13T21:26:01.243Z,21.25
2022-11-13T21:28:46.395Z,18.83
2022-11-13T21:31:32.045Z,20.40
2022-11-13T21:34:17.151Z,21.58
2022-11-13T21:37:02.422Z,20.42
2022-11-13T21:39:47.381Z,20.60
2022-11-13T21:42:32.316Z,21.13
2022-11-13T21:45:17.203Z,21.83
2022-11-13T21:48:02.038Z,20.50
2022-11-13T21:50:46.970Z,21.10
2022-11-13T21:53:32.005Z,20.00
2022-11-13T21:56:17.328Z,21.00
2022-11-13T21:59:02.765Z,19.45
2022-11-13T22:01:48.031Z,21.73
2022-11-13T22:04:32.915Z,21.25
2022-11-13T22:07:17.654Z,21.38
2022-11-13T22:10:07.972Z,21.55
2022-11-13T22:12:53.365Z,22.15
2022-11-13T22:15:38.220Z,23.05
2022-11-13T22:18:23.629Z,23.95
2022-11-13T22:21:10.857Z,23.05
2022-11-13T22:23:56.780Z,23.10
2022-11-13T22:26:45.841Z,22.27
2022-11-13T22:29:30.961Z,22.10
2022-11-13T22:32:15.975Z,22.17
2022-11-13T22:35:00.867Z,22.40
2022-11-13T22:37:45.803Z,21.10
2022-11-13T22:40:32.733Z,22.13
2022-11-13T22:43:17.445Z,24.08
2022-11-13T22:46:06.907Z,22.23
2022-11-13T22:48:53.357Z,23.65
2022-11-13T22:51:41.615Z,23.92
2022-11-13T22:54:26.685Z,22.23
2022-11-13T22:57:11.587Z,22.05
2022-11-13T22:59:57.486Z,22.90
2022-11-13T23:02:47.063Z,23.52
2022-11-13T23:05:35.674Z,23.27
2022-11-13T23:08:21.159Z,24.60
2022-11-13T23:11:08.253Z,22.63
2022-11-13T23:13:55.407Z,22.83
2022-11-13T23:16:41.539Z,23.63
2022-11-13T23:19:26.345Z,23.42
2022-11-13T23:22:11.313Z,24.25
2022-11-13T23:24:56.363Z,23.92
2022-11-13T23:27:41.637Z,24.15
2022-11-13T23:30:26.548Z,23.50
2022-11-13T23:33:11.786Z,23.08
2022-11-13T23:35:57.381Z,23.45
2022-11-13T23:38:42.278Z,24.05
2022-11-13T23:41:27.263Z,24.23
2022-11-13T23:44:12.309Z,24.55
2022-11-13T23:46:57.256Z,25.50
2022-11-13T23:49:42.314Z,25.83
2022-11-13T23:52:27.335Z,25.58
2022-11-13T23:55:12.387Z,25.27
2022-11-13T23:58:02.461Z,24.88
